Amsterdam, Ohio
Current Conditions -  °F | °C
As of 11:04 AM on Thursday 23 Oct 2014 (Local Time) from KHLG Reporting Station
Scattered Clouds Scattered Clouds  
Wind Chill: 50°   Ceiling: Unl
Heat Index: 50°   Visibility: 10mi
Dew Point: 43°   Wind: 10mph
Humidity: 77%   Direction: 320°NW
Pressure: 30.16"   Gusts: NA
Location:  40.47°N, 80.92°W
Report Text: KHLG 231504Z 32009KT 10SM SCT014 10/06 A3016 RMK AO2 T01000061
Loading
Personal Weather Stations






























Interactive Weather Map
Tropical Storm Tracking
New forecast layout! Learn more

10-Day Weather Forecast

Advertisements
Track Severe Weather on mobile